sensor_id;sensor_type;location;lat;lon;timestamp;temperature;humidity
20459;DHT22;10388;52.314;7.938;2023-06-26T00:02:41;19.30;99.90
20459;DHT22;10388;52.314;7.938;2023-06-26T00:05:25;19.30;99.90
20459;DHT22;10388;52.314;7.938;2023-06-26T00:08:03;19.30;99.90
20459;DHT22;10388;52.314;7.938;2023-06-26T00:10:50;19.20;99.90
20459;DHT22;10388;52.314;7.938;2023-06-26T00:13:47;19.20;99.90
20459;DHT22;10388;52.314;7.938;2023-06-26T00:16:44;19.20;99.90
20459;DHT22;10388;52.314;7.938;2023-06-26T00:19:41;19.20;99.90
20459;DHT22;10388;52.314;7.938;2023-06-26T00:22:14;19.20;99.90
20459;DHT22;10388;52.314;7.938;2023-06-26T00:25:01;19.10;99.90
20459;DHT22;10388;52.314;7.938;2023-06-26T00:27:41;19.20;99.90
20459;DHT22;10388;52.314;7.938;2023-06-26T00:30:23;19.10;99.90
20459;DHT22;10388;52.314;7.938;2023-06-26T00:33:19;19.10;99.90
20459;DHT22;10388;52.314;7.938;2023-06-26T00:36:16;19.10;99.90
20459;DHT22;10388;52.314;7.938;2023-06-26T00:49:27;19.00;99.90
20459;DHT22;10388;52.314;7.938;2023-06-26T00:52:08;19.00;99.90
20459;DHT22;10388;52.314;7.938;2023-06-26T00:55:29;19.00;99.90
20459;DHT22;10388;52.314;7.938;2023-06-26T00:58:12;19.00;99.90
20459;DHT22;10388;52.314;7.938;2023-06-26T01:00:49;19.00;99.90
20459;DHT22;10388;52.314;7.938;2023-06-26T01:03:34;18.90;99.90
20459;DHT22;10388;52.314;7.938;2023-06-26T01:06:32;18.90;99.90
20459;DHT22;10388;52.314;7.938;2023-06-26T01:12:48;18.90;99.90
20459;DHT22;10388;52.314;7.938;2023-06-26T01:15:27;18.80;99.90
20459;DHT22;10388;52.314;7.938;2023-06-26T01:18:07;18.80;99.90
20459;DHT22;10388;52.314;7.938;2023-06-26T01:21:05;18.80;99.90
20459;DHT22;10388;52.314;7.938;2023-06-26T01:24:02;18.80;99.90
20459;DHT22;10388;52.314;7.938;2023-06-26T01:27:09;18.80;99.90
20459;DHT22;10388;52.314;7.938;2023-06-26T01:29:51;18.80;99.90
20459;DHT22;10388;52.314;7.938;2023-06-26T01:35:53;18.80;99.90
20459;DHT22;10388;52.314;7.938;2023-06-26T01:38:29;18.80;99.90
20459;DHT22;10388;52.314;7.938;2023-06-26T01:41:11;18.80;99.90
20459;DHT22;10388;52.314;7.938;2023-06-26T01:50:20;18.90;99.90
20459;DHT22;10388;52.314;7.938;2023-06-26T01:59:08;18.90;99.90
20459;DHT22;10388;52.314;7.938;2023-06-26T02:01:54;18.80;99.90
20459;DHT22;10388;52.314;7.938;2023-06-26T02:04:46;18.80;99.90
20459;DHT22;10388;52.314;7.938;2023-06-26T02:11:11;18.80;99.90
20459;DHT22;10388;52.314;7.938;2023-06-26T02:13:42;18.80;99.90
20459;DHT22;10388;52.314;7.938;2023-06-26T02:16:57;18.80;99.90
20459;DHT22;10388;52.314;7.938;2023-06-26T02:19:57;18.70;99.90
20459;DHT22;10388;52.314;7.938;2023-06-26T02:22:36;18.70;99.90
20459;DHT22;10388;52.314;7.938;2023-06-26T02:25:22;18.70;99.90
20459;DHT22;10388;52.314;7.938;2023-06-26T02:28:01;18.60;99.90
20459;DHT22;10388;52.314;7.938;2023-06-26T02:30:59;18.60;99.90
20459;DHT22;10388;52.314;7.938;2023-06-26T02:36:30;18.60;99.90
20459;DHT22;10388;52.314;7.938;2023-06-26T02:39:07;18.60;99.90
20459;DHT22;10388;52.314;7.938;2023-06-26T02:41:53;18.60;99.90
20459;DHT22;10388;52.314;7.938;2023-06-26T02:44:41;18.50;99.90
20459;DHT22;10388;52.314;7.938;2023-06-26T02:53:31;18.40;99.90
20459;DHT22;10388;52.314;7.938;2023-06-26T03:03:09;18.30;99.90
20459;DHT22;10388;52.314;7.938;2023-06-26T03:08:57;18.20;99.90
20459;DHT22;10388;52.314;7.938;2023-06-26T03:18:55;18.10;99.90
20459;DHT22;10388;52.314;7.938;2023-06-26T03:21:36;18.10;99.90
20459;DHT22;10388;52.314;7.938;2023-06-26T03:37:51;18.00;99.90
20459;DHT22;10388;52.314;7.938;2023-06-26T03:40:38;18.00;99.90
20459;DHT22;10388;52.314;7.938;2023-06-26T03:49:35;18.10;99.90
20459;DHT22;10388;52.314;7.938;2023-06-26T03:52:23;18.10;99.90
20459;DHT22;10388;52.314;7.938;2023-06-26T03:55:03;18.20;99.90
20459;DHT22;10388;52.314;7.938;2023-06-26T04:00:54;18.30;99.90
20459;DHT22;10388;52.314;7.938;2023-06-26T04:07:00;18.50;99.90
20459;DHT22;10388;52.314;7.938;2023-06-26T04:13:02;18.80;99.90
20459;DHT22;10388;52.314;7.938;2023-06-26T04:15:46;18.80;99.90
20459;DHT22;10388;52.314;7.938;2023-06-26T04:18:33;18.80;99.90
20459;DHT22;10388;52.314;7.938;2023-06-26T04:21:30;18.90;99.90
20459;DHT22;10388;52.314;7.938;2023-06-26T04:27:39;19.00;99.90
20459;DHT22;10388;52.314;7.938;2023-06-26T04:30:29;19.00;99.90
20459;DHT22;10388;52.314;7.938;2023-06-26T04:33:31;19.10;99.90
20459;DHT22;10388;52.314;7.938;2023-06-26T04:36:33;19.20;99.90
20459;DHT22;10388;52.314;7.938;2023-06-26T04:39:16;21.40;99.90
20459;DHT22;10388;52.314;7.938;2023-06-26T04:42:02;23.50;99.90
20459;DHT22;10388;52.314;7.938;2023-06-26T04:44:35;26.10;99.90
20459;DHT22;10388;52.314;7.938;2023-06-26T04:47:24;27.50;99.90
20459;DHT22;10388;52.314;7.938;2023-06-26T04:49:57;28.60;99.90
20459;DHT22;10388;52.314;7.938;2023-06-26T04:52:31;27.90;99.90
20459;DHT22;10388;52.314;7.938;2023-06-26T04:55:04;26.60;99.90
20459;DHT22;10388;52.314;7.938;2023-06-26T04:58:08;24.80;99.90
20459;DHT22;10388;52.314;7.938;2023-06-26T05:00:46;23.20;99.90
20459;DHT22;10388;52.314;7.938;2023-06-26T05:03:23;22.50;99.90
20459;DHT22;10388;52.314;7.938;2023-06-26T05:06:05;22.20;99.90
20459;DHT22;10388;52.314;7.938;2023-06-26T05:08:36;21.90;99.90
20459;DHT22;10388;52.314;7.938;2023-06-26T05:11:07;21.80;99.90
20459;DHT22;10388;52.314;7.938;2023-06-26T05:13:37;21.80;99.90
20459;DHT22;10388;52.314;7.938;2023-06-26T05:16:09;21.80;99.90
20459;DHT22;10388;52.314;7.938;2023-06-26T05:18:39;21.80;99.90
20459;DHT22;10388;52.314;7.938;2023-06-26T05:21:10;21.70;99.90
20459;DHT22;10388;52.314;7.938;2023-06-26T05:23:41;21.80;99.90
20459;DHT22;10388;52.314;7.938;2023-06-26T05:26:14;21.80;99.90
20459;DHT22;10388;52.314;7.938;2023-06-26T05:28:45;21.90;99.90
20459;DHT22;10388;52.314;7.938;2023-06-26T05:31:18;21.90;99.90
20459;DHT22;10388;52.314;7.938;2023-06-26T05:33:49;22.00;99.90
20459;DHT22;10388;52.314;7.938;2023-06-26T05:36:22;22.10;99.90
20459;DHT22;10388;52.314;7.938;2023-06-26T05:38:54;22.10;99.90
20459;DHT22;10388;52.314;7.938;2023-06-26T05:41:27;22.20;99.90
20459;DHT22;10388;52.314;7.938;2023-06-26T05:43:57;22.20;99.90
20459;DHT22;10388;52.314;7.938;2023-06-26T05:46:28;22.30;99.90
20459;DHT22;10388;52.314;7.938;2023-06-26T05:48:58;22.30;99.90
20459;DHT22;10388;52.314;7.938;2023-06-26T05:51:29;22.40;99.90
20459;DHT22;10388;52.314;7.938;2023-06-26T05:54:00;22.40;99.90
20459;DHT22;10388;52.314;7.938;2023-06-26T05:56:31;22.50;99.90
20459;DHT22;10388;52.314;7.938;2023-06-26T05:59:02;22.60;99.90
20459;DHT22;10388;52.314;7.938;2023-06-26T06:01:33;22.70;99.90
20459;DHT22;10388;52.314;7.938;2023-06-26T06:04:05;22.80;99.90
20459;DHT22;10388;52.314;7.938;2023-06-26T06:06:36;22.90;99.90
20459;DHT22;10388;52.314;7.938;2023-06-26T06:09:06;22.80;99.90
20459;DHT22;10388;52.314;7.938;2023-06-26T06:11:37;22.70;99.90
20459;DHT22;10388;52.314;7.938;2023-06-26T06:14:07;22.60;99.90
20459;DHT22;10388;52.314;7.938;2023-06-26T06:16:38;22.60;99.90
20459;DHT22;10388;52.314;7.938;2023-06-26T06:19:08;22.70;99.90
20459;DHT22;10388;52.314;7.938;2023-06-26T06:21:41;22.80;99.90
20459;DHT22;10388;52.314;7.938;2023-06-26T06:24:13;22.90;99.90
20459;DHT22;10388;52.314;7.938;2023-06-26T06:26:44;22.90;99.90
20459;DHT22;10388;52.314;7.938;2023-06-26T06:29:14;23.00;99.90
20459;DHT22;10388;52.314;7.938;2023-06-26T06:31:45;23.20;99.90
20459;DHT22;10388;52.314;7.938;2023-06-26T06:34:16;23.30;99.90
20459;DHT22;10388;52.314;7.938;2023-06-26T06:36:47;23.50;99.90
20459;DHT22;10388;52.314;7.938;2023-06-26T06:39:17;23.50;99.90
20459;DHT22;10388;52.314;7.938;2023-06-26T06:41:48;23.60;99.90
20459;DHT22;10388;52.314;7.938;2023-06-26T06:44:18;23.60;99.90
20459;DHT22;10388;52.314;7.938;2023-06-26T06:46:49;23.70;99.90
20459;DHT22;10388;52.314;7.938;2023-06-26T06:49:19;23.80;99.90
20459;DHT22;10388;52.314;7.938;2023-06-26T06:51:50;23.90;99.90
20459;DHT22;10388;52.314;7.938;2023-06-26T06:54:21;24.20;99.90
20459;DHT22;10388;52.314;7.938;2023-06-26T06:56:51;24.20;99.90
20459;DHT22;10388;52.314;7.938;2023-06-26T06:59:22;24.00;99.90
20459;DHT22;10388;52.314;7.938;2023-06-26T07:01:52;23.90;99.90
20459;DHT22;10388;52.314;7.938;2023-06-26T07:04:23;24.00;99.90
20459;DHT22;10388;52.314;7.938;2023-06-26T07:06:53;24.30;99.90
20459;DHT22;10388;52.314;7.938;2023-06-26T07:09:24;24.50;99.90
20459;DHT22;10388;52.314;7.938;2023-06-26T07:11:55;24.50;99.90
20459;DHT22;10388;52.314;7.938;2023-06-26T07:14:25;24.30;99.90
20459;DHT22;10388;52.314;7.938;2023-06-26T07:16:56;24.40;99.90
20459;DHT22;10388;52.314;7.938;2023-06-26T07:19:26;24.20;99.90
20459;DHT22;10388;52.314;7.938;2023-06-26T07:21:57;24.00;99.90
20459;DHT22;10388;52.314;7.938;2023-06-26T07:24:27;23.80;99.90
20459;DHT22;10388;52.314;7.938;2023-06-26T07:26:58;23.80;99.90
20459;DHT22;10388;52.314;7.938;2023-06-26T07:29:28;23.70;99.90
20459;DHT22;10388;52.314;7.938;2023-06-26T07:31:59;23.40;99.90
20459;DHT22;10388;52.314;7.938;2023-06-26T07:34:29;23.30;99.90
20459;DHT22;10388;52.314;7.938;2023-06-26T07:37:00;23.20;99.90
20459;DHT22;10388;52.314;7.938;2023-06-26T07:39:30;22.90;99.90
20459;DHT22;10388;52.314;7.938;2023-06-26T07:42:01;22.70;99.90
20459;DHT22;10388;52.314;7.938;2023-06-26T07:44:31;22.60;99.90
20459;DHT22;10388;52.314;7.938;2023-06-26T07:47:02;22.40;99.90
20459;DHT22;10388;52.314;7.938;2023-06-26T07:49:33;22.50;99.90
20459;DHT22;10388;52.314;7.938;2023-06-26T07:52:05;22.60;99.90
20459;DHT22;10388;52.314;7.938;2023-06-26T07:54:35;22.70;99.90
20459;DHT22;10388;52.314;7.938;2023-06-26T07:57:06;22.70;99.90
20459;DHT22;10388;52.314;7.938;2023-06-26T07:59:37;22.90;99.90
20459;DHT22;10388;52.314;7.938;2023-06-26T08:02:07;23.30;99.90
20459;DHT22;10388;52.314;7.938;2023-06-26T08:04:38;23.60;99.90
20459;DHT22;10388;52.314;7.938;2023-06-26T08:07:08;23.70;99.90
20459;DHT22;10388;52.314;7.938;2023-06-26T08:09:39;23.50;99.90
20459;DHT22;10388;52.314;7.938;2023-06-26T08:12:10;23.70;99.90
20459;DHT22;10388;52.314;7.938;2023-06-26T08:14:40;23.80;99.90
20459;DHT22;10388;52.314;7.938;2023-06-26T08:17:11;23.90;99.90
20459;DHT22;10388;52.314;7.938;2023-06-26T08:19:41;24.00;99.90
20459;DHT22;10388;52.314;7.938;2023-06-26T08:22:12;24.20;99.90
20459;DHT22;10388;52.314;7.938;2023-06-26T08:24:43;24.20;99.90
20459;DHT22;10388;52.314;7.938;2023-06-26T08:27:13;24.20;99.90
20459;DHT22;10388;52.314;7.938;2023-06-26T08:29:44;24.30;99.90
20459;DHT22;10388;52.314;7.938;2023-06-26T08:32:15;24.30;99.90
20459;DHT22;10388;52.314;7.938;2023-06-26T08:34:45;24.40;99.90
20459;DHT22;10388;52.314;7.938;2023-06-26T08:37:16;24.40;99.90
20459;DHT22;10388;52.314;7.938;2023-06-26T08:39:47;24.20;99.90
20459;DHT22;10388;52.314;7.938;2023-06-26T08:42:17;24.10;99.90
20459;DHT22;10388;52.314;7.938;2023-06-26T08:44:48;24.10;99.90
20459;DHT22;10388;52.314;7.938;2023-06-26T08:47:19;24.20;99.90
20459;DHT22;10388;52.314;7.938;2023-06-26T08:49:56;24.20;99.90
20459;DHT22;10388;52.314;7.938;2023-06-26T08:52:36;24.00;99.90
20459;DHT22;10388;52.314;7.938;2023-06-26T08:55:09;24.20;99.90
20459;DHT22;10388;52.314;7.938;2023-06-26T08:57:41;24.20;99.90
20459;DHT22;10388;52.314;7.938;2023-06-26T09:00:12;24.10;99.90
20459;DHT22;10388;52.314;7.938;2023-06-26T09:02:45;24.00;99.90
20459;DHT22;10388;52.314;7.938;2023-06-26T09:05:16;23.80;99.90
20459;DHT22;10388;52.314;7.938;2023-06-26T09:07:46;23.90;99.90
20459;DHT22;10388;52.314;7.938;2023-06-26T09:10:17;23.70;99.90
20459;DHT22;10388;52.314;7.938;2023-06-26T09:12:47;23.80;99.90
20459;DHT22;10388;52.314;7.938;2023-06-26T09:15:21;24.20;99.90
20459;DHT22;10388;52.314;7.938;2023-06-26T09:17:56;24.60;99.90
20459;DHT22;10388;52.314;7.938;2023-06-26T09:20:31;24.90;99.90
20459;DHT22;10388;52.314;7.938;2023-06-26T09:23:03;24.70;99.90
20459;DHT22;10388;52.314;7.938;2023-06-26T09:25:38;25.00;99.90
20459;DHT22;10388;52.314;7.938;2023-06-26T09:28:09;24.90;99.90
20459;DHT22;10388;52.314;7.938;2023-06-26T09:30:41;24.80;99.90
20459;DHT22;10388;52.314;7.938;2023-06-26T09:33:19;24.80;99.90
20459;DHT22;10388;52.314;7.938;2023-06-26T09:35:50;24.80;99.90
20459;DHT22;10388;52.314;7.938;2023-06-26T09:38:20;25.10;99.90
20459;DHT22;10388;52.314;7.938;2023-06-26T09:40:51;25.00;99.90
20459;DHT22;10388;52.314;7.938;2023-06-26T09:43:23;24.70;99.90
20459;DHT22;10388;52.314;7.938;2023-06-26T09:45:53;24.60;99.90
20459;DHT22;10388;52.314;7.938;2023-06-26T09:48:25;24.80;99.90
20459;DHT22;10388;52.314;7.938;2023-06-26T09:50:56;24.50;99.90
20459;DHT22;10388;52.314;7.938;2023-06-26T09:53:30;24.50;99.90
20459;DHT22;10388;52.314;7.938;2023-06-26T09:56:06;24.50;99.90
20459;DHT22;10388;52.314;7.938;2023-06-26T09:58:38;24.50;99.90
20459;DHT22;10388;52.314;7.938;2023-06-26T10:01:09;24.30;99.90
20459;DHT22;10388;52.314;7.938;2023-06-26T10:03:40;24.10;99.90
20459;DHT22;10388;52.314;7.938;2023-06-26T10:06:11;24.10;99.90
20459;DHT22;10388;52.314;7.938;2023-06-26T10:08:43;24.20;99.90
20459;DHT22;10388;52.314;7.938;2023-06-26T10:11:16;24.60;99.90
20459;DHT22;10388;52.314;7.938;2023-06-26T10:13:51;24.80;99.90
20459;DHT22;10388;52.314;7.938;2023-06-26T10:16:25;25.20;99.90
20459;DHT22;10388;52.314;7.938;2023-06-26T10:19:01;25.30;99.90
20459;DHT22;10388;52.314;7.938;2023-06-26T10:21:34;25.20;99.90
20459;DHT22;10388;52.314;7.938;2023-06-26T10:24:10;25.30;99.90
20459;DHT22;10388;52.314;7.938;2023-06-26T10:26:44;25.50;99.90
20459;DHT22;10388;52.314;7.938;2023-06-26T10:29:17;25.60;99.90
20459;DHT22;10388;52.314;7.938;2023-06-26T10:31:52;25.30;99.90
20459;DHT22;10388;52.314;7.938;2023-06-26T10:34:23;25.40;99.90
20459;DHT22;10388;52.314;7.938;2023-06-26T10:37:01;25.10;99.90
20459;DHT22;10388;52.314;7.938;2023-06-26T10:39:51;25.20;99.90
20459;DHT22;10388;52.314;7.938;2023-06-26T10:42:38;25.40;99.90
20459;DHT22;10388;52.314;7.938;2023-06-26T10:45:20;25.70;99.90
20459;DHT22;10388;52.314;7.938;2023-06-26T10:47:52;25.10;99.90
20459;DHT22;10388;52.314;7.938;2023-06-26T10:50:31;25.30;99.90
20459;DHT22;10388;52.314;7.938;2023-06-26T10:56:03;25.90;99.90
20459;DHT22;10388;52.314;7.938;2023-06-26T10:58:40;26.00;99.90
20459;DHT22;10388;52.314;7.938;2023-06-26T11:03:48;25.90;99.90
20459;DHT22;10388;52.314;7.938;2023-06-26T11:06:22;25.90;99.90
20459;DHT22;10388;52.314;7.938;2023-06-26T11:08:54;25.90;99.90
20459;DHT22;10388;52.314;7.938;2023-06-26T11:14:22;26.70;99.90
20459;DHT22;10388;52.314;7.938;2023-06-26T11:16:55;26.90;99.90
20459;DHT22;10388;52.314;7.938;2023-06-26T11:19:27;27.10;99.90
20459;DHT22;10388;52.314;7.938;2023-06-26T11:22:03;26.40;99.90
20459;DHT22;10388;52.314;7.938;2023-06-26T11:24:34;26.30;99.90
20459;DHT22;10388;52.314;7.938;2023-06-26T11:27:05;26.30;99.90
20459;DHT22;10388;52.314;7.938;2023-06-26T11:29:36;26.40;99.90
20459;DHT22;10388;52.314;7.938;2023-06-26T11:32:07;26.40;99.90
20459;DHT22;10388;52.314;7.938;2023-06-26T11:34:38;26.40;99.90
20459;DHT22;10388;52.314;7.938;2023-06-26T11:37:09;26.50;99.90
20459;DHT22;10388;52.314;7.938;2023-06-26T11:39:39;26.60;99.90
20459;DHT22;10388;52.314;7.938;2023-06-26T11:42:11;26.30;99.90
20459;DHT22;10388;52.314;7.938;2023-06-26T11:44:42;26.00;99.90
20459;DHT22;10388;52.314;7.938;2023-06-26T11:47:17;26.00;99.90
20459;DHT22;10388;52.314;7.938;2023-06-26T11:49:49;25.90;99.90
20459;DHT22;10388;52.314;7.938;2023-06-26T11:52:19;25.90;99.90
20459;DHT22;10388;52.314;7.938;2023-06-26T11:54:50;25.50;99.90
20459;DHT22;10388;52.314;7.938;2023-06-26T11:57:20;25.50;99.90
20459;DHT22;10388;52.314;7.938;2023-06-26T11:59:51;25.70;99.90
20459;DHT22;10388;52.314;7.938;2023-06-26T12:02:22;25.90;99.90
20459;DHT22;10388;52.314;7.938;2023-06-26T12:04:53;25.70;99.90
20459;DHT22;10388;52.314;7.938;2023-06-26T12:07:23;25.70;99.90
20459;DHT22;10388;52.314;7.938;2023-06-26T12:09:54;25.60;99.90
20459;DHT22;10388;52.314;7.938;2023-06-26T12:12:25;25.40;99.90
20459;DHT22;10388;52.314;7.938;2023-06-26T12:14:56;25.40;99.90
20459;DHT22;10388;52.314;7.938;2023-06-26T12:17:27;25.70;99.90
20459;DHT22;10388;52.314;7.938;2023-06-26T12:19:57;25.90;99.90
20459;DHT22;10388;52.314;7.938;2023-06-26T12:22:34;26.10;99.90
20459;DHT22;10388;52.314;7.938;2023-06-26T12:25:07;26.30;99.90
20459;DHT22;10388;52.314;7.938;2023-06-26T12:27:37;26.20;99.90
20459;DHT22;10388;52.314;7.938;2023-06-26T12:30:08;26.10;99.90
20459;DHT22;10388;52.314;7.938;2023-06-26T12:32:39;25.90;99.90
20459;DHT22;10388;52.314;7.938;2023-06-26T12:35:10;25.60;99.90
20459;DHT22;10388;52.314;7.938;2023-06-26T12:37:41;25.00;99.90
20459;DHT22;10388;52.314;7.938;2023-06-26T12:40:20;25.20;99.90
20459;DHT22;10388;52.314;7.938;2023-06-26T12:42:53;25.50;99.90
20459;DHT22;10388;52.314;7.938;2023-06-26T12:45:23;25.60;99.90
20459;DHT22;10388;52.314;7.938;2023-06-26T12:48:07;25.50;99.90
20459;DHT22;10388;52.314;7.938;2023-06-26T12:50:44;25.50;99.90
20459;DHT22;10388;52.314;7.938;2023-06-26T12:53:15;25.70;99.90
20459;DHT22;10388;52.314;7.938;2023-06-26T12:55:46;25.80;99.90
20459;DHT22;10388;52.314;7.938;2023-06-26T12:58:16;25.60;99.90
20459;DHT22;10388;52.314;7.938;2023-06-26T13:00:47;25.30;99.90
20459;DHT22;10388;52.314;7.938;2023-06-26T13:03:18;25.30;99.90
20459;DHT22;10388;52.314;7.938;2023-06-26T13:05:51;25.40;99.90
20459;DHT22;10388;52.314;7.938;2023-06-26T13:08:21;25.60;99.90
20459;DHT22;10388;52.314;7.938;2023-06-26T13:10:52;25.40;99.90
20459;DHT22;10388;52.314;7.938;2023-06-26T13:13:22;25.30;99.90
20459;DHT22;10388;52.314;7.938;2023-06-26T13:15:53;24.80;99.90
20459;DHT22;10388;52.314;7.938;2023-06-26T13:18:24;24.80;99.90
20459;DHT22;10388;52.314;7.938;2023-06-26T13:20:54;24.40;99.90
20459;DHT22;10388;52.314;7.938;2023-06-26T13:23:25;24.20;99.90
20459;DHT22;10388;52.314;7.938;2023-06-26T13:25:55;24.30;99.90
20459;DHT22;10388;52.314;7.938;2023-06-26T13:28:26;24.60;99.90
20459;DHT22;10388;52.314;7.938;2023-06-26T13:30:56;24.70;99.90
20459;DHT22;10388;52.314;7.938;2023-06-26T13:33:27;25.10;99.90
20459;DHT22;10388;52.314;7.938;2023-06-26T13:35:57;25.20;99.90
20459;DHT22;10388;52.314;7.938;2023-06-26T13:38:28;25.10;99.90
20459;DHT22;10388;52.314;7.938;2023-06-26T13:40:59;25.00;99.90
20459;DHT22;10388;52.314;7.938;2023-06-26T13:43:32;25.10;99.90
20459;DHT22;10388;52.314;7.938;2023-06-26T13:46:03;25.20;99.90
20459;DHT22;10388;52.314;7.938;2023-06-26T13:48:33;25.00;99.90
20459;DHT22;10388;52.314;7.938;2023-06-26T13:51:04;25.20;99.90
20459;DHT22;10388;52.314;7.938;2023-06-26T13:53:34;25.10;99.90
20459;DHT22;10388;52.314;7.938;2023-06-26T13:56:05;24.80;99.90
20459;DHT22;10388;52.314;7.938;2023-06-26T13:58:36;24.50;99.90
20459;DHT22;10388;52.314;7.938;2023-06-26T14:01:06;24.60;99.90
20459;DHT22;10388;52.314;7.938;2023-06-26T14:03:37;24.50;99.90
20459;DHT22;10388;52.314;7.938;2023-06-26T14:06:07;24.40;99.90
20459;DHT22;10388;52.314;7.938;2023-06-26T14:08:38;24.40;99.90
20459;DHT22;10388;52.314;7.938;2023-06-26T14:11:09;24.50;99.90
20459;DHT22;10388;52.314;7.938;2023-06-26T14:13:39;24.20;99.90
20459;DHT22;10388;52.314;7.938;2023-06-26T14:16:10;24.20;99.90
20459;DHT22;10388;52.314;7.938;2023-06-26T14:18:40;24.30;99.90
20459;DHT22;10388;52.314;7.938;2023-06-26T14:21:11;24.20;99.90
20459;DHT22;10388;52.314;7.938;2023-06-26T14:23:41;24.00;99.90
20459;DHT22;10388;52.314;7.938;2023-06-26T14:26:12;23.90;99.90
20459;DHT22;10388;52.314;7.938;2023-06-26T14:28:42;24.20;99.90
20459;DHT22;10388;52.314;7.938;2023-06-26T14:31:13;24.50;99.90
20459;DHT22;10388;52.314;7.938;2023-06-26T14:33:44;24.50;99.90
20459;DHT22;10388;52.314;7.938;2023-06-26T14:36:14;24.00;99.90
20459;DHT22;10388;52.314;7.938;2023-06-26T14:38:45;23.80;99.90
20459;DHT22;10388;52.314;7.938;2023-06-26T14:41:16;23.50;99.90
20459;DHT22;10388;52.314;7.938;2023-06-26T14:43:46;23.50;99.90
20459;DHT22;10388;52.314;7.938;2023-06-26T14:46:17;23.60;99.90
20459;DHT22;10388;52.314;7.938;2023-06-26T14:48:48;23.70;99.90
20459;DHT22;10388;52.314;7.938;2023-06-26T14:51:18;23.50;99.90
20459;DHT22;10388;52.314;7.938;2023-06-26T14:53:49;23.50;99.90
20459;DHT22;10388;52.314;7.938;2023-06-26T14:56:20;23.40;99.90
20459;DHT22;10388;52.314;7.938;2023-06-26T14:58:51;23.50;99.90
20459;DHT22;10388;52.314;7.938;2023-06-26T15:01:22;23.50;99.90
20459;DHT22;10388;52.314;7.938;2023-06-26T15:03:53;23.50;99.90
20459;DHT22;10388;52.314;7.938;2023-06-26T15:06:23;23.30;99.90
20459;DHT22;10388;52.314;7.938;2023-06-26T15:08:54;23.30;99.90
20459;DHT22;10388;52.314;7.938;2023-06-26T15:11:25;23.50;99.90
20459;DHT22;10388;52.314;7.938;2023-06-26T15:13:55;23.80;99.90
20459;DHT22;10388;52.314;7.938;2023-06-26T15:16:26;24.00;99.90
20459;DHT22;10388;52.314;7.938;2023-06-26T15:18:57;24.10;99.90
20459;DHT22;10388;52.314;7.938;2023-06-26T15:21:27;24.30;99.90
20459;DHT22;10388;52.314;7.938;2023-06-26T15:23:58;24.30;99.90
20459;DHT22;10388;52.314;7.938;2023-06-26T15:26:28;24.30;99.90
20459;DHT22;10388;52.314;7.938;2023-06-26T15:28:59;24.00;99.90
20459;DHT22;10388;52.314;7.938;2023-06-26T15:31:29;23.80;99.90
20459;DHT22;10388;52.314;7.938;2023-06-26T15:34:01;23.60;99.90
20459;DHT22;10388;52.314;7.938;2023-06-26T15:36:32;23.40;99.90
20459;DHT22;10388;52.314;7.938;2023-06-26T15:39:02;23.40;99.90
20459;DHT22;10388;52.314;7.938;2023-06-26T15:41:33;23.50;99.90
20459;DHT22;10388;52.314;7.938;2023-06-26T15:44:07;23.60;99.90
20459;DHT22;10388;52.314;7.938;2023-06-26T15:46:37;23.50;99.90
20459;DHT22;10388;52.314;7.938;2023-06-26T15:49:08;23.50;99.90
20459;DHT22;10388;52.314;7.938;2023-06-26T15:51:38;23.50;99.90
20459;DHT22;10388;52.314;7.938;2023-06-26T15:54:09;23.30;99.90
20459;DHT22;10388;52.314;7.938;2023-06-26T15:56:39;23.10;99.90
20459;DHT22;10388;52.314;7.938;2023-06-26T15:59:10;23.00;99.90
20459;DHT22;10388;52.314;7.938;2023-06-26T16:01:40;23.10;99.90
20459;DHT22;10388;52.314;7.938;2023-06-26T16:04:11;23.20;99.90
20459;DHT22;10388;52.314;7.938;2023-06-26T16:06:42;23.20;99.90
20459;DHT22;10388;52.314;7.938;2023-06-26T16:09:13;23.20;99.90
20459;DHT22;10388;52.314;7.938;2023-06-26T16:11:47;23.20;99.90
20459;DHT22;10388;52.314;7.938;2023-06-26T16:14:17;23.20;99.90
20459;DHT22;10388;52.314;7.938;2023-06-26T16:16:48;22.90;99.90
20459;DHT22;10388;52.314;7.938;2023-06-26T16:19:18;22.90;99.90
20459;DHT22;10388;52.314;7.938;2023-06-26T16:21:49;22.80;99.90
20459;DHT22;10388;52.314;7.938;2023-06-26T16:24:19;22.80;99.90
20459;DHT22;10388;52.314;7.938;2023-06-26T16:26:50;22.70;99.90
20459;DHT22;10388;52.314;7.938;2023-06-26T16:29:21;22.70;99.90
20459;DHT22;10388;52.314;7.938;2023-06-26T16:31:52;22.70;99.90
20459;DHT22;10388;52.314;7.938;2023-06-26T16:34:24;22.50;99.90
20459;DHT22;10388;52.314;7.938;2023-06-26T16:36:55;22.50;99.90
20459;DHT22;10388;52.314;7.938;2023-06-26T16:39:25;22.70;99.90
20459;DHT22;10388;52.314;7.938;2023-06-26T16:41:56;22.60;99.90
20459;DHT22;10388;52.314;7.938;2023-06-26T16:44:26;22.50;99.90
20459;DHT22;10388;52.314;7.938;2023-06-26T16:46:57;22.40;99.90
20459;DHT22;10388;52.314;7.938;2023-06-26T16:49:28;22.30;99.90
20459;DHT22;10388;52.314;7.938;2023-06-26T16:51:59;22.20;99.90
20459;DHT22;10388;52.314;7.938;2023-06-26T16:54:31;22.20;99.90
20459;DHT22;10388;52.314;7.938;2023-06-26T16:57:01;22.20;99.90
20459;DHT22;10388;52.314;7.938;2023-06-26T16:59:32;22.20;99.90
20459;DHT22;10388;52.314;7.938;2023-06-26T17:02:03;22.10;99.90
20459;DHT22;10388;52.314;7.938;2023-06-26T17:04:33;22.10;99.90
20459;DHT22;10388;52.314;7.938;2023-06-26T17:07:04;22.00;99.90
20459;DHT22;10388;52.314;7.938;2023-06-26T17:09:35;22.10;99.90
20459;DHT22;10388;52.314;7.938;2023-06-26T17:12:06;22.00;99.90
20459;DHT22;10388;52.314;7.938;2023-06-26T17:14:36;22.00;99.90
20459;DHT22;10388;52.314;7.938;2023-06-26T17:17:07;21.90;99.90
20459;DHT22;10388;52.314;7.938;2023-06-26T17:19:38;21.80;99.90
20459;DHT22;10388;52.314;7.938;2023-06-26T17:22:09;21.70;99.90
20459;DHT22;10388;52.314;7.938;2023-06-26T17:24:40;21.70;99.90
20459;DHT22;10388;52.314;7.938;2023-06-26T17:27:14;21.70;99.90
20459;DHT22;10388;52.314;7.938;2023-06-26T17:29:45;21.80;99.90
20459;DHT22;10388;52.314;7.938;2023-06-26T17:32:16;21.80;99.90
20459;DHT22;10388;52.314;7.938;2023-06-26T17:34:46;21.70;99.90
20459;DHT22;10388;52.314;7.938;2023-06-26T17:37:17;21.60;99.90
20459;DHT22;10388;52.314;7.938;2023-06-26T17:39:49;21.50;99.90
20459;DHT22;10388;52.314;7.938;2023-06-26T17:42:20;21.30;99.90
20459;DHT22;10388;52.314;7.938;2023-06-26T17:44:51;21.10;99.90
20459;DHT22;10388;52.314;7.938;2023-06-26T17:47:22;21.10;99.90
20459;DHT22;10388;52.314;7.938;2023-06-26T17:49:52;21.00;99.90
20459;DHT22;10388;52.314;7.938;2023-06-26T17:52:23;20.60;99.90
20459;DHT22;10388;52.314;7.938;2023-06-26T17:54:53;20.70;99.90
20459;DHT22;10388;52.314;7.938;2023-06-26T17:57:24;20.60;99.90